Time;durP1;ratioP1;P1;durP2;ratioP2;P2;SDS_P1;SDS_P2;PMS_P1;PMS_P2;Temp;Humidity;BMP_temperature;BMP_pressure;BME280_temperature;BME280_humidity;BME280_pressure;Samples;Min_cycle;Max_cycle;Signal;HPM_P1;HPM_P2
2022/07/14 00:01:20;;;;;;;1.27;0.80;;;;;;;21.39;41.66;100541.16;5588576;31;34765;-68
2022/07/14 00:04:23;;;;;;;5.40;0.90;;;;;;;21.42;41.64;100529.88;5588917;31;34612;-68
2022/07/14 00:07:26;;;;;;;4.22;0.80;;;;;;;21.32;41.93;100523.44;5589071;31;33967;-68
2022/07/14 00:10:29;;;;;;;2.40;0.80;;;;;;;21.26;42.15;100533.28;5589000;31;34591;-68
2022/07/14 00:13:32;;;;;;;1.83;0.82;;;;;;;21.17;42.34;100532.81;5587768;31;34087;-68
2022/07/14 00:16:35;;;;;;;1.30;0.77;;;;;;;21.07;43.00;100535.22;5588455;31;35218;-68
2022/07/14 00:19:38;;;;;;;1.25;0.70;;;;;;;20.86;44.13;100534.97;5588761;31;33958;-68
2022/07/14 00:22:41;;;;;;;1.37;0.80;;;;;;;20.69;44.27;100532.91;5588724;31;33874;-68
2022/07/14 00:25:44;;;;;;;1.37;0.80;;;;;;;20.55;45.40;100533.34;5588568;31;33895;-68
2022/07/14 00:28:47;;;;;;;0.95;0.62;;;;;;;20.41;45.81;100534.59;5588186;31;33938;-68
2022/07/14 00:31:49;;;;;;;0.90;0.80;;;;;;;20.23;46.39;100536.25;5587401;31;34176;-68
2022/07/14 00:34:52;;;;;;;1.83;0.70;;;;;;;20.10;46.66;100540.94;5587472;31;34043;-68
2022/07/14 00:37:55;;;;;;;3.25;0.75;;;;;;;19.99;46.91;100536.34;5587568;31;33216;-68
2022/07/14 00:40:58;;;;;;;1.23;0.70;;;;;;;19.87;47.27;100552.41;5588030;31;35179;-68
2022/07/14 00:44:01;;;;;;;2.47;0.90;;;;;;;19.78;47.76;100545.69;5588360;31;34365;-68
2022/07/14 00:47:04;;;;;;;3.15;0.80;;;;;;;19.68;47.93;100548.06;5587070;31;34073;-68
2022/07/14 00:50:10;;;;;;;2.60;0.77;;;;;;;19.59;48.51;100555.59;5588253;31;33935;-68
2022/07/14 00:53:14;;;;;;;2.17;0.73;;;;;;;19.50;49.51;100555.09;5590060;31;34147;-68
2022/07/14 00:56:17;;;;;;;1.90;0.85;;;;;;;19.46;49.92;100550.38;5591039;31;34625;-67
2022/07/14 00:59:20;;;;;;;1.50;0.88;;;;;;;19.38;50.60;100543.34;5590658;31;34626;-68
2022/07/14 01:02:23;;;;;;;3.47;0.82;;;;;;;19.33;50.40;100555.81;5590041;31;34136;-68
2022/07/14 01:05:28;;;;;;;2.33;0.80;;;;;;;19.30;50.85;100545.50;5590920;31;33978;-68
2022/07/14 01:08:31;;;;;;;4.60;0.82;;;;;;;19.24;50.83;100544.50;5591037;31;34027;-67
2022/07/14 01:11:34;;;;;;;3.20;0.80;;;;;;;19.18;51.22;100541.87;5590027;31;33744;-68
2022/07/14 01:14:38;;;;;;;1.60;0.80;;;;;;;19.16;51.38;100541.28;5590909;31;34187;-68
2022/07/14 01:17:42;;;;;;;3.58;1.05;;;;;;;19.14;51.39;100549.56;5590484;31;35306;-68
2022/07/14 01:20:44;;;;;;;3.37;1.00;;;;;;;19.12;51.15;100547.09;5590424;31;33912;-68
2022/07/14 01:23:47;;;;;;;1.48;0.90;;;;;;;19.09;51.01;100547.53;5590799;31;34546;-68
2022/07/14 01:26:51;;;;;;;0.82;0.70;;;;;;;19.15;50.85;100547.69;5590409;31;34468;-68
2022/07/14 01:29:54;;;;;;;3.12;0.90;;;;;;;19.27;50.75;100548.63;5589394;31;33246;-68
2022/07/14 01:32:57;;;;;;;1.65;0.90;;;;;;;19.31;50.63;100544.47;5590266;31;34441;-68
2022/07/14 01:36:00;;;;;;;2.12;0.77;;;;;;;19.35;50.70;100545.66;5590363;31;34018;-68
2022/07/14 01:39:04;;;;;;;1.00;0.70;;;;;;;19.36;50.17;100542.75;5590665;31;34115;-67
2022/07/14 01:42:08;;;;;;;2.17;0.90;;;;;;;19.52;50.21;100550.28;5590483;31;34247;-68
2022/07/14 01:45:12;;;;;;;3.83;0.95;;;;;;;19.72;49.23;100535.81;5590372;31;33940;-68
2022/07/14 01:48:15;;;;;;;2.42;0.77;;;;;;;20.05;48.47;100538.09;5590456;31;34148;-68
2022/07/14 01:51:18;;;;;;;1.60;0.70;;;;;;;20.12;48.36;100536.16;5590230;31;34082;-68
2022/07/14 01:54:21;;;;;;;1.05;0.68;;;;;;;20.20;47.59;100539.38;5590619;31;33958;-68
2022/07/14 01:57:23;;;;;;;2.50;0.80;;;;;;;20.27;47.78;100526.66;5590472;31;34442;-68
2022/07/14 02:00:26;;;;;;;3.25;0.80;;;;;;;20.31;47.66;100525.16;5590137;31;34719;-68
2022/07/14 02:03:31;;;;;;;1.20;0.70;;;;;;;20.34;47.90;100521.19;5588242;31;32687;-68
2022/07/14 02:06:34;;;;;;;2.25;0.80;;;;;;;20.35;47.98;100526.34;5590109;31;34796;-68
2022/07/14 02:12:59;;;;;;;1.25;0.90;;;;;;;20.53;48.37;100533.56;5590433;31;34225;-68
2022/07/14 02:16:03;;;;;;;1.33;0.82;;;;;;;20.62;48.01;100526.00;5590008;31;34339;-68
2022/07/14 02:19:07;;;;;;;0.98;0.80;;;;;;;20.77;47.52;100523.66;5589358;31;33607;-68
2022/07/14 02:22:10;;;;;;;6.57;1.40;;;;;;;20.73;48.44;100533.28;5590251;31;34610;-68
2022/07/14 02:25:13;;;;;;;1.25;0.90;;;;;;;20.64;49.79;100526.56;5589222;31;34111;-68
2022/07/14 02:28:16;;;;;;;3.53;0.90;;;;;;;20.51;49.51;100535.69;5576395;31;33507;-68
2022/07/14 02:31:19;;;;;;;1.27;0.75;;;;;;;20.36;49.47;100535.25;5589864;31;33910;-68
2022/07/14 02:34:22;;;;;;;2.10;1.00;;;;;;;20.27;50.12;100542.00;5589751;31;34237;-68
2022/07/14 02:37:27;;;;;;;2.28;0.80;;;;;;;20.32;50.54;100534.09;5589796;31;35307;-68
2022/07/14 02:40:30;;;;;;;1.37;0.80;;;;;;;20.24;50.63;100535.16;5589691;31;34061;-68
2022/07/14 02:43:34;;;;;;;5.32;0.80;;;;;;;20.17;50.86;100545.22;5589237;31;34803;-68
2022/07/14 02:46:38;;;;;;;1.90;0.80;;;;;;;20.06;51.41;100542.44;5589013;31;33997;-68
2022/07/14 02:49:41;;;;;;;3.35;1.02;;;;;;;19.92;52.47;100539.09;5589886;31;33979;-68
2022/07/14 02:52:44;;;;;;;3.20;1.02;;;;;;;19.89;52.30;100551.16;5588957;31;33943;-68
2022/07/14 02:55:47;;;;;;;1.58;0.98;;;;;;;19.91;53.60;100546.34;5590055;31;34542;-68
2022/07/14 02:58:50;;;;;;;2.22;1.37;;;;;;;19.80;53.23;100552.47;5589570;31;34851;-68
2022/07/14 03:01:53;;;;;;;4.00;1.27;;;;;;;19.78;53.66;100557.28;5589821;31;34113;-68
2022/07/14 03:04:56;;;;;;;2.92;1.00;;;;;;;19.79;53.96;100556.22;5589891;31;34184;-67
2022/07/14 03:08:00;;;;;;;3.40;0.90;;;;;;;19.70;53.71;100562.13;5589413;31;34703;-68
2022/07/14 03:11:04;;;;;;;1.45;1.05;;;;;;;19.63;54.29;100564.88;5589524;31;33919;-68
2022/07/14 03:14:08;;;;;;;5.72;1.15;;;;;;;19.54;56.35;100563.53;5589702;31;34675;-68
2022/07/14 03:17:10;;;;;;;2.80;0.93;;;;;;;19.48;55.29;100556.34;5588800;31;32510;-69
2022/07/14 03:20:14;;;;;;;4.05;1.05;;;;;;;19.40;55.61;100553.91;5589383;31;33948;-68
2022/07/14 03:23:18;;;;;;;4.53;1.10;;;;;;;19.37;55.91;100557.00;5588628;31;34014;-68
2022/07/14 03:26:21;;;;;;;2.60;1.25;;;;;;;19.35;56.79;100565.31;5589462;31;33902;-68
2022/07/14 03:29:25;;;;;;;1.30;1.10;;;;;;;19.31;56.87;100566.81;5589106;31;35209;-68
2022/07/14 03:32:28;;;;;;;1.67;1.00;;;;;;;19.30;56.59;100561.66;5589664;31;35177;-68
2022/07/14 03:35:31;;;;;;;3.35;0.98;;;;;;;19.28;56.42;100566.41;5589159;31;34250;-68
2022/07/14 03:38:34;;;;;;;2.55;1.00;;;;;;;19.27;57.28;100567.44;5589170;31;33981;-68
2022/07/14 03:41:39;;;;;;;2.08;1.30;;;;;;;19.28;57.52;100563.72;5589511;31;34153;-69
2022/07/14 03:44:45;;;;;;;3.95;1.12;;;;;;;19.31;57.51;100566.00;5589126;31;34727;-68
2022/07/14 03:47:47;;;;;;;2.55;1.17;;;;;;;19.32;57.40;100563.06;5588499;31;33087;-69
2022/07/14 03:50:51;;;;;;;1.92;0.98;;;;;;;19.34;57.98;100568.22;5588209;31;34049;-69
2022/07/14 03:53:55;;;;;;;3.40;1.10;;;;;;;19.28;58.59;100564.53;5589088;31;34442;-69
2022/07/14 03:56:58;;;;;;;3.60;1.25;;;;;;;19.28;58.72;100566.41;5589291;31;35320;-69
2022/07/14 04:00:03;;;;;;;5.10;1.25;;;;;;;19.23;59.79;100566.25;5588082;31;33419;-68
2022/07/14 04:03:07;;;;;;;4.32;1.30;;;;;;;19.23;59.13;100567.06;5588788;31;34019;-69
2022/07/14 04:06:11;;;;;;;2.95;1.37;;;;;;;19.33;59.17;100563.88;5589040;31;34238;-69
2022/07/14 04:09:15;;;;;;;3.12;1.33;;;;;;;19.48;59.30;100556.34;5575248;31;34360;-69
2022/07/14 04:12:18;;;;;;;3.00;1.33;;;;;;;19.64;58.74;100566.53;5588681;31;34773;-69
2022/07/14 04:15:27;;;;;;;4.65;1.50;;;;;;;19.79;58.14;100563.47;5588622;31;34019;-69
2022/07/14 04:18:31;;;;;;;3.92;1.23;;;;;;;19.88;58.17;100567.53;5588803;31;34012;-69
2022/07/14 04:21:36;;;;;;;6.78;1.30;;;;;;;19.98;58.14;100561.63;5588537;31;34645;-69
2022/07/14 04:24:41;;;;;;;3.62;1.30;;;;;;;20.05;58.04;100562.34;5588532;31;33980;-69
2022/07/14 04:27:44;;;;;;;4.43;1.45;;;;;;;20.11;58.01;100562.28;5589815;31;33829;-69
2022/07/14 04:30:47;;;;;;;5.25;1.37;;;;;;;20.15;58.45;100563.47;5589750;31;33360;-69
2022/07/14 04:33:50;;;;;;;4.55;1.80;;;;;;;20.19;58.86;100566.53;5591275;31;34481;-69
2022/07/14 04:36:54;;;;;;;4.80;1.80;;;;;;;20.29;58.78;100559.56;5590653;31;34214;-69
2022/07/14 04:39:57;;;;;;;8.45;1.60;;;;;;;20.41;60.11;100556.97;5590160;31;34642;-69
2022/07/14 04:43:01;;;;;;;6.37;1.80;;;;;;;20.55;60.57;100552.22;5590674;31;34649;-69
2022/07/14 04:46:05;;;;;;;9.98;2.22;;;;;;;20.67;60.44;100551.19;5591042;31;34015;-69
2022/07/14 04:52:31;;;;;;;3.65;1.83;;;;;;;21.23;57.48;100549.94;5590643;31;33921;-69
2022/07/14 04:55:34;;;;;;;4.95;2.00;;;;;;;21.79;54.72;100557.44;5590626;31;34598;-70
2022/07/14 04:58:37;;;;;;;6.18;1.83;;;;;;;22.28;53.40;100547.12;5590704;31;34583;-69
2022/07/14 05:01:41;;;;;;;4.85;1.60;;;;;;;22.63;52.26;100566.75;5589888;31;34685;-68
2022/07/14 05:04:44;;;;;;;6.78;1.50;;;;;;;22.70;50.09;100567.47;5590585;31;34150;-69
2022/07/14 05:07:47;;;;;;;4.35;1.65;;;;;;;22.55;51.34;100567.16;5590784;31;34483;-69
2022/07/14 05:10:54;;;;;;;5.47;2.60;;;;;;;22.45;51.43;100561.56;5590624;31;33888;-68
2022/07/14 05:13:57;;;;;;;5.55;1.60;;;;;;;22.63;51.02;100561.34;5590454;31;34031;-68
2022/07/14 05:17:00;;;;;;;7.22;1.70;;;;;;;22.75;50.63;100569.44;5589270;31;33474;-68
2022/07/14 05:20:17;;;;;;;8.40;1.77;;;;;;;22.85;51.36;100567.72;5589743;31;32727;-68
2022/07/14 05:23:21;;;;;;;4.10;1.40;;;;;;;22.94;49.66;100573.56;5589286;31;32456;-68
2022/07/14 05:26:24;;;;;;;3.10;1.50;;;;;;;22.94;49.70;100571.69;5590390;31;34071;-68
2022/07/14 05:29:27;;;;;;;7.15;1.60;;;;;;;23.00;48.46;100577.16;5590226;31;35271;-68
2022/07/14 05:32:30;;;;;;;5.43;1.87;;;;;;;23.16;49.20;100566.37;5590369;31;33884;-68
2022/07/14 05:35:34;;;;;;;6.35;1.85;;;;;;;23.20;48.51;100572.94;5590307;31;34748;-68
2022/07/14 05:38:37;;;;;;;9.25;2.08;;;;;;;23.40;48.48;100575.13;5589242;31;34282;-68
2022/07/14 05:41:39;;;;;;;10.13;2.62;;;;;;;23.51;48.02;100565.31;5588586;31;32385;-68
2022/07/14 05:44:43;;;;;;;7.25;1.50;;;;;;;23.64;46.82;100565.78;5589498;31;32484;-68
2022/07/14 05:47:46;;;;;;;3.28;1.70;;;;;;;23.76;47.42;100558.38;5590209;31;34001;-69
2022/07/14 05:50:49;;;;;;;5.60;1.73;;;;;;;23.92;46.69;100556.69;5589429;31;34071;-69
2022/07/14 05:53:52;;;;;;;3.10;1.50;;;;;;;24.01;46.07;100563.31;5576527;31;32564;-68
2022/07/14 05:56:55;;;;;;;8.05;2.00;;;;;;;24.16;46.98;100563.53;5590179;31;34485;-68
2022/07/14 05:59:58;;;;;;;4.70;1.60;;;;;;;24.35;46.82;100557.81;5589964;31;34145;-68
2022/07/14 06:03:04;;;;;;;3.20;1.50;;;;;;;24.47;46.16;100562.00;5590236;31;34271;-68
2022/07/14 06:06:09;;;;;;;10.73;1.50;;;;;;;24.61;44.89;100552.37;5589828;31;33994;-68
2022/07/14 06:09:12;;;;;;;8.77;1.70;;;;;;;24.79;44.98;100553.09;5590231;31;34891;-68
2022/07/14 06:12:16;;;;;;;5.35;1.17;;;;;;;24.90;45.02;100547.53;5589934;31;34062;-68
2022/07/14 06:15:20;;;;;;;9.23;1.30;;;;;;;25.08;43.17;100540.88;5589558;31;34406;-68
2022/07/14 06:18:24;;;;;;;3.50;1.30;;;;;;;25.29;43.02;100542.69;5589846;31;33916;-68
2022/07/14 06:21:27;;;;;;;4.53;1.20;;;;;;;25.52;42.25;100542.31;5589896;31;33915;-68
2022/07/14 06:24:30;;;;;;;1.05;0.80;;;;;;;25.76;42.29;100542.75;5589741;31;33948;-68
2022/07/14 06:27:33;;;;;;;2.22;0.70;;;;;;;26.07;38.66;100548.34;5589751;31;34628;-68
2022/07/14 06:30:36;;;;;;;0.60;0.50;;;;;;;26.28;37.78;100542.75;5589660;31;35279;-68
2022/07/14 06:33:39;;;;;;;3.12;0.90;;;;;;;26.51;36.64;100546.88;5589792;31;33907;-68
2022/07/14 06:36:43;;;;;;;3.30;1.12;;;;;;;26.67;37.13;100539.56;5589752;31;33872;-68
2022/07/14 06:39:46;;;;;;;5.00;1.23;;;;;;;26.76;38.60;100538.78;5589595;31;34229;-68
2022/07/14 06:42:49;;;;;;;4.65;0.82;;;;;;;26.87;38.71;100538.81;5590132;31;34665;-68
2022/07/14 06:45:57;;;;;;;6.07;0.80;;;;;;;26.87;37.46;100530.66;5589544;31;35279;-69
2022/07/14 06:49:00;;;;;;;4.40;1.52;;;;;;;27.08;36.12;100527.63;5589517;31;34079;-69
2022/07/14 06:52:05;;;;;;;1.48;0.80;;;;;;;27.33;35.95;100531.44;5589127;31;33394;-68
2022/07/14 06:55:09;;;;;;;4.57;0.70;;;;;;;27.50;35.66;100527.34;5588876;31;34002;-68
2022/07/14 06:58:11;;;;;;;7.93;0.70;;;;;;;27.75;35.66;100526.44;5589519;31;33913;-68
2022/07/14 07:01:14;;;;;;;5.97;1.20;;;;;;;27.99;35.61;100532.91;5589524;31;33885;-68
2022/07/14 07:04:17;;;;;;;1.50;0.88;;;;;;;28.21;34.85;100526.31;5589606;31;33980;-68
2022/07/14 07:07:29;;;;;;;11.18;1.45;;;;;;;28.50;33.53;100524.50;5589475;31;33954;-68
2022/07/14 07:10:32;;;;;;;1.58;0.70;;;;;;;28.88;34.74;100523.72;5589361;31;34137;-67
2022/07/14 07:13:36;;;;;;;1.25;0.73;;;;;;;29.12;32.50;100531.16;5588686;31;32421;-68
2022/07/14 07:16:39;;;;;;;1.27;0.68;;;;;;;29.18;33.32;100530.00;5588704;31;32674;-69
2022/07/14 07:19:42;;;;;;;1.98;0.85;;;;;;;29.43;32.08;100521.59;5588813;31;32982;-69
2022/07/14 07:22:45;;;;;;;7.07;0.90;;;;;;;28.76;32.28;100522.41;5588483;31;32737;-67
2022/07/14 07:25:48;;;;;;;4.10;0.80;;;;;;;28.67;33.37;100533.09;5589410;31;33931;-68
2022/07/14 07:28:53;;;;;;;3.83;0.75;;;;;;;28.41;33.70;100518.00;5589593;31;33914;-68
2022/07/14 07:32:04;;;;;;;4.03;0.95;;;;;;;28.71;32.96;100517.81;5576582;31;32460;-68
2022/07/14 07:35:07;;;;;;;6.37;1.00;;;;;;;28.96;32.68;100519.53;5589549;31;34006;-68
2022/07/14 07:38:11;;;;;;;2.58;0.80;;;;;;;29.02;33.74;100514.84;5589154;31;33963;-68
2022/07/14 07:41:13;;;;;;;2.17;0.90;;;;;;;28.98;32.87;100514.63;5588319;31;34132;-68
2022/07/14 07:44:16;;;;;;;4.10;0.90;;;;;;;29.01;32.59;100514.03;5588241;31;33941;-67
2022/07/14 07:47:19;;;;;;;4.37;1.05;;;;;;;29.63;31.89;100518.63;5588861;31;34092;-68
2022/07/14 07:50:22;;;;;;;3.65;0.70;;;;;;;30.10;31.01;100522.50;5589048;31;34353;-67
2022/07/14 07:53:26;;;;;;;2.40;1.33;;;;;;;30.63;29.84;100512.19;5589201;31;33968;-69
2022/07/14 07:56:29;;;;;;;1.35;0.70;;;;;;;31.83;28.55;100521.31;5588952;31;33899;-67
2022/07/14 07:59:32;;;;;;;5.72;1.00;;;;;;;31.18;28.54;100518.66;5588778;31;33965;-68
2022/07/14 08:02:35;;;;;;;2.65;0.68;;;;;;;31.89;27.64;100512.69;5586849;31;34137;-67
2022/07/14 08:05:38;;;;;;;7.57;0.60;;;;;;;32.36;27.61;100507.84;5588630;31;33996;-69
2022/07/14 08:09:03;;;;;;;3.40;0.60;;;;;;;34.02;24.68;100510.16;5577300;31;33952;-69
2022/07/14 08:12:06;;;;;;;4.22;0.70;;;;;;;33.39;24.79;100510.56;5587574;31;32936;-69
2022/07/14 08:15:09;;;;;;;2.97;0.60;;;;;;;34.13;24.33;100505.16;5574208;31;32531;-68
2022/07/14 08:18:12;;;;;;;5.43;0.73;;;;;;;34.53;23.29;100505.84;5587724;31;33968;-68
2022/07/14 08:21:16;;;;;;;1.30;0.80;;;;;;;34.64;24.50;100498.88;5588355;31;34708;-68
2022/07/14 08:24:19;;;;;;;1.45;0.60;;;;;;;34.57;23.67;100495.81;5588163;31;34027;-69
2022/07/14 08:27:26;;;;;;;0.60;0.57;;;;;;;34.93;23.26;100500.97;5588252;31;34056;-69
2022/07/14 08:30:29;;;;;;;0.55;0.40;;;;;;;36.03;21.52;100504.47;5587996;31;34302;-68
2022/07/14 08:33:32;;;;;;;4.35;0.62;;;;;;;35.62;21.39;100493.31;5588128;31;34636;-69
2022/07/14 08:36:39;;;;;;;3.00;0.60;;;;;;;36.34;21.12;100495.03;5588203;31;34747;-69
2022/07/14 08:39:42;;;;;;;2.35;0.57;;;;;;;36.21;21.12;100491.37;5588169;31;33979;-68
2022/07/14 08:42:48;;;;;;;5.50;0.70;;;;;;;36.76;20.52;100490.28;5587693;31;34911;-69
2022/07/14 08:45:52;;;;;;;2.03;0.70;;;;;;;36.74;20.61;100484.28;5587660;31;33904;-69
2022/07/14 08:48:58;;;;;;;2.58;0.70;;;;;;;37.32;18.86;100484.00;5587595;31;34133;-69
2022/07/14 08:52:01;;;;;;;2.50;0.52;;;;;;;36.81;18.92;100484.53;5587000;31;33494;-69
2022/07/14 08:55:07;;;;;;;2.35;0.70;;;;;;;35.86;20.42;100484.44;5587701;31;34540;-69
2022/07/14 08:58:10;;;;;;;0.75;0.50;;;;;;;37.56;18.97;100490.72;5586996;31;33982;-69
2022/07/14 09:01:14;;;;;;;4.90;0.50;;;;;;;36.14;19.71;100480.06;5587198;31;34764;-68
2022/07/14 09:04:17;;;;;;;1.10;0.55;;;;;;;36.93;19.01;100476.28;5587266;31;34085;-69
2022/07/14 09:07:32;;;;;;;3.60;0.60;;;;;;;36.19;20.27;100463.28;5587052;31;33948;-69
2022/07/14 09:10:38;;;;;;;2.72;0.62;;;;;;;37.31;19.89;100464.97;5587185;31;34645;-69
2022/07/14 09:14:10;;;;;;;1.05;0.68;;;;;;;38.38;18.18;100460.84;5589851;31;34491;-69
2022/07/14 09:17:19;;;;;;;1.05;0.60;;;;;;;37.96;17.52;100457.56;5590796;31;33958;-68
2022/07/14 09:20:25;;;;;;;2.75;0.60;;;;;;;37.70;17.78;100456.00;5589806;31;33917;-69
2022/07/14 09:23:30;;;;;;;0.90;0.40;;;;;;;39.10;16.92;100451.38;5589795;31;33272;-69
2022/07/14 09:26:46;;;;;;;1.25;0.55;;;;;;;39.15;17.31;100444.75;5589523;31;34209;-69
2022/07/14 09:29:57;;;;;;;4.82;0.70;;;;;;;39.29;17.36;100442.34;5590117;31;33879;-69
2022/07/14 09:33:05;;;;;;;2.37;0.70;;;;;;;39.75;16.45;100446.25;5589547;31;33280;-69
2022/07/14 09:36:22;;;;;;;2.00;0.60;;;;;;;38.62;17.39;100433.03;5589529;31;32310;-69
2022/07/14 09:39:26;;;;;;;2.15;0.60;;;;;;;38.97;16.18;100433.22;5590082;31;34097;-69
2022/07/14 09:42:52;;;;;;;61.50;3.00;;;;;;;39.73;16.81;100437.47;5590288;31;33986;-69
2022/07/14 09:45:58;;;;;;;1.98;0.60;;;;;;;39.89;16.29;100435.50;5590262;31;34504;-69
2022/07/14 09:49:08;;;;;;;0.57;0.57;;;;;;;40.03;16.23;100432.22;5588543;31;32465;-70
2022/07/14 09:52:11;;;;;;;1.08;0.60;;;;;;;41.48;14.04;100432.22;5589959;31;34670;-70
2022/07/14 09:55:21;;;;;;;0.73;0.50;;;;;;;41.85;14.70;100438.72;5589760;31;33894;-69
2022/07/14 09:58:31;;;;;;;5.47;0.73;;;;;;;41.77;14.59;100431.47;5589810;31;34113;-67
2022/07/14 10:01:40;;;;;;;1.15;0.60;;;;;;;39.01;17.25;100432.12;5590010;31;34683;-68
2022/07/14 10:04:44;;;;;;;2.67;0.80;;;;;;;38.43;16.42;100425.38;5589293;31;32332;-68
2022/07/14 10:07:49;;;;;;;1.40;0.68;;;;;;;39.09;16.27;100422.00;5590006;31;34806;-68
2022/07/14 10:11:00;;;;;;;1.60;0.52;;;;;;;38.60;16.95;100422.28;5590217;31;34601;-67
2022/07/14 10:14:04;;;;;;;0.60;0.57;;;;;;;37.13;17.99;100411.81;5589855;31;34004;-67
2022/07/14 10:17:07;;;;;;;2.17;0.68;;;;;;;38.51;17.42;100412.53;5590093;31;34674;-67
2022/07/14 10:20:15;;;;;;;0.80;0.68;;;;;;;39.12;16.80;100411.00;5589865;31;34654;-67
2022/07/14 10:23:20;;;;;;;3.85;0.60;;;;;;;40.16;15.06;100398.34;5590079;31;34017;-67
2022/07/14 10:26:23;;;;;;;4.15;0.68;;;;;;;41.98;13.93;100391.94;5589480;31;34609;-67
2022/07/14 10:29:28;;;;;;;2.05;0.68;;;;;;;42.18;13.56;100396.16;5584385;31;163896;-67
2022/07/14 10:32:42;;;;;;;1.67;0.70;;;;;;;43.84;12.66;100399.66;5590105;31;34603;-68
2022/07/14 10:36:14;;;;;;;3.28;0.88;;;;;;;42.57;13.37;100387.44;5589988;31;34641;-69
2022/07/14 10:39:36;;;;;;;1.30;0.60;;;;;;;44.19;12.74;100385.06;5589001;31;32641;-68
2022/07/14 10:43:12;;;;;;;3.90;0.60;;;;;;;43.00;13.43;100386.69;5589670;31;34094;-68
2022/07/14 10:46:33;;;;;;;5.12;0.62;;;;;;;43.00;12.97;100377.50;5588732;31;32657;-68
2022/07/14 10:50:04;;;;;;;2.60;0.70;;;;;;;40.67;14.83;100371.16;5588826;31;34123;-70
2022/07/14 10:53:08;;;;;;;1.67;0.60;;;;;;;42.84;13.59;100375.81;5589004;31;33788;-68
2022/07/14 10:56:24;;;;;;;0.90;0.50;;;;;;;41.29;15.12;100371.84;5590112;31;33898;-67
2022/07/14 10:59:27;;;;;;;0.90;0.65;;;;;;;43.60;12.60;100359.22;5589073;31;34311;-69
2022/07/14 11:02:35;;;;;;;1.52;0.73;;;;;;;44.01;12.99;100361.84;5588790;31;32667;-68
2022/07/14 11:06:03;;;;;;;2.90;0.70;;;;;;;43.17;12.77;100346.97;5589802;31;33904;-67
2022/07/14 11:09:30;;;;;;;0.60;0.50;;;;;;;43.34;12.80;100339.88;5588900;31;32434;-67
2022/07/14 11:12:34;;;;;;;1.00;0.50;;;;;;;42.57;12.55;100337.22;5575944;31;33564;-67
2022/07/14 11:15:50;;;;;;;0.88;0.60;;;;;;;41.29;13.92;100332.84;5588699;31;34663;-68
2022/07/14 11:19:20;;;;;;;0.90;0.60;;;;;;;40.06;15.05;100321.13;5589552;31;34606;-68
2022/07/14 11:22:25;;;;;;;4.97;0.70;;;;;;;40.13;15.49;100329.59;5589170;31;34077;-67
2022/07/14 11:25:29;;;;;;;2.47;0.55;;;;;;;42.32;13.41;100323.03;5588268;31;33084;-67
2022/07/14 11:28:33;;;;;;;4.00;0.60;;;;;;;44.33;13.52;100323.56;5589432;31;34135;-67
2022/07/14 11:31:53;;;;;;;3.22;0.68;;;;;;;42.12;13.59;100300.09;5589417;31;35337;-66
2022/07/14 11:38:27;;;;;;;2.92;0.70;;;;;;;40.69;13.47;100317.94;5587301;31;32772;-66
2022/07/14 11:41:44;;;;;;;2.25;0.55;;;;;;;42.41;12.09;100317.97;5589069;31;34866;-67
2022/07/14 11:44:49;;;;;;;0.73;0.60;;;;;;;43.19;12.30;100318.63;5589482;31;33996;-68
2022/07/14 11:47:52;;;;;;;1.62;0.60;;;;;;;43.54;12.01;100299.31;5589015;31;35278;-67
2022/07/14 11:51:03;;;;;;;2.25;0.70;;;;;;;43.67;11.54;100308.16;5589275;31;34669;-67
2022/07/14 11:54:08;;;;;;;2.20;0.60;;;;;;;39.53;14.12;100312.47;5588933;31;34758;-69
2022/07/14 11:57:11;;;;;;;3.95;0.47;;;;;;;38.76;15.26;100302.25;5589181;31;35682;-67
2022/07/14 12:00:15;;;;;;;2.75;0.62;;;;;;;37.99;15.72;100288.75;5575217;31;34634;-68
2022/07/14 12:03:27;;;;;;;0.68;0.50;;;;;;;39.74;14.02;100295.47;5588744;31;34013;-67
2022/07/14 12:06:30;;;;;;;6.95;0.70;;;;;;;41.27;12.85;100306.56;5587772;31;32507;-66
2022/07/14 12:09:33;;;;;;;0.70;0.50;;;;;;;41.99;12.35;100290.41;5589196;31;33955;-67
2022/07/14 12:12:48;;;;;;;2.35;0.60;;;;;;;42.36;12.15;100293.22;5588904;31;34462;-67
2022/07/14 12:16:03;;;;;;;3.22;0.57;;;;;;;44.04;10.87;100288.34;5588655;31;33904;-66
2022/07/14 12:19:07;;;;;;;1.80;0.47;;;;;;;43.19;11.63;100283.12;5562755;31;32456;-67
2022/07/14 12:22:11;;;;;;;4.45;0.65;;;;;;;46.49;9.60;100280.13;5588812;31;34610;-68
2022/07/14 12:25:31;;;;;;;1.87;1.02;;;;;;;48.10;8.70;100284.41;5588484;31;34519;-68
2022/07/14 12:28:35;;;;;;;1.45;0.60;;;;;;;47.32;9.31;100282.59;5587571;31;35148;-67
2022/07/14 12:31:40;;;;;;;0.65;0.50;;;;;;;45.81;9.59;100277.78;5588279;31;34576;-68
2022/07/14 12:34:44;;;;;;;1.00;0.50;;;;;;;46.75;9.66;100275.94;5575224;31;33931;-68
2022/07/14 12:37:51;;;;;;;2.20;0.50;;;;;;;43.72;11.02;100275.03;5588136;31;33919;-67
2022/07/14 12:41:19;;;;;;;2.55;0.80;;;;;;;41.03;12.87;100255.72;5588572;31;35249;-68
2022/07/14 12:44:22;;;;;;;2.15;0.60;;;;;;;45.11;10.53;100269.62;5588484;31;34607;-69
2022/07/14 12:47:25;;;;;;;0.65;0.50;;;;;;;47.22;8.68;100263.81;5588475;31;34714;-67
2022/07/14 12:50:29;;;;;;;0.52;0.40;;;;;;;46.49;9.16;100252.06;5590738;31;34622;-68
2022/07/14 12:53:32;;;;;;;2.70;0.65;;;;;;;42.45;11.75;100249.09;5590273;31;32774;-67
2022/07/14 12:56:41;;;;;;;2.87;0.90;;;;;;;44.94;10.17;100246.81;5589816;31;33395;-68
2022/07/14 12:59:46;;;;;;;1.00;0.60;;;;;;;46.89;9.16;100251.34;5590757;31;35214;-67
2022/07/14 13:02:48;;;;;;;1.67;0.50;;;;;;;47.39;8.85;100239.56;5590432;31;35159;-68
2022/07/14 13:05:56;;;;;;;0.90;0.50;;;;;;;49.27;7.68;100242.94;5589890;31;34620;-68
2022/07/14 13:08:59;;;;;;;2.03;0.50;;;;;;;46.56;9.51;100238.03;5589622;31;33951;-68
2022/07/14 13:12:27;;;;;;;6.22;0.68;;;;;;;46.84;8.81;100231.31;5576743;31;34784;-67
2022/07/14 13:15:30;;;;;;;0.50;0.50;;;;;;;44.67;9.63;100230.87;5590491;31;34054;-68
2022/07/14 13:18:32;;;;;;;0.95;0.50;;;;;;;44.87;9.86;100229.25;5590577;31;33948;-68
2022/07/14 13:21:46;;;;;;;1.70;0.60;;;;;;;45.91;9.13;100216.44;5590013;31;32879;-67
2022/07/14 13:24:55;;;;;;;2.15;0.40;;;;;;;46.14;8.80;100219.50;5590849;31;34053;-68
2022/07/14 13:27:57;;;;;;;2.00;0.68;;;;;;;44.58;9.76;100214.47;5589348;31;33244;-68
2022/07/14 13:31:03;;;;;;;3.50;0.50;;;;;;;42.59;10.93;100215.72;5590385;31;35262;-68
2022/07/14 13:34:16;;;;;;;0.73;0.40;;;;;;;40.48;12.25;100204.34;5589785;31;33945;-67
2022/07/14 13:37:19;;;;;;;1.15;0.60;;;;;;;38.04;14.17;100201.81;5590651;31;34252;-68
2022/07/14 13:40:22;;;;;;;1.62;0.60;;;;;;;37.59;14.65;100199.34;5590635;31;34091;-68
2022/07/14 13:43:25;;;;;;;0.90;0.50;;;;;;;41.52;11.94;100185.19;5590221;31;34004;-69
2022/07/14 13:46:29;;;;;;;1.27;0.60;;;;;;;46.46;8.92;100200.41;5590314;31;33949;-67
2022/07/14 13:52:07;;;;;;;2.83;0.50;;;;;;;48.76;7.78;100202.09;5589565;31;34001;-69
2022/07/14 13:52:55;;;;;;;0.98;0.43;;;;;;;49.44;7.61;100199.50;5590227;31;34036;-67
2022/07/14 13:55:58;;;;;;;1.85;0.88;;;;;;;46.21;8.96;100183.78;5590197;31;35199;-68
2022/07/14 13:59:01;;;;;;;0.68;0.52;;;;;;;42.97;10.68;100177.31;5589487;31;34281;-67
2022/07/14 14:02:07;;;;;;;2.72;0.68;;;;;;;44.55;9.79;100176.09;5590178;31;34035;-69
2022/07/14 14:05:10;;;;;;;4.28;0.60;;;;;;;47.54;8.75;100181.94;5589862;31;34535;-68
2022/07/14 14:08:13;;;;;;;0.70;0.60;;;;;;;45.40;9.74;100176.69;5590153;31;34658;-67
2022/07/14 14:11:16;;;;;;;2.92;0.60;;;;;;;47.18;8.37;100164.75;5562784;31;32626;-68
2022/07/14 14:14:19;;;;;;;2.00;0.70;;;;;;;47.66;8.15;100174.97;5589062;31;34569;-68
2022/07/14 14:17:21;;;;;;;3.50;0.77;;;;;;;47.49;8.09;100162.75;5589891;31;35171;-67
2022/07/14 14:20:27;;;;;;;2.85;0.70;;;;;;;46.86;8.60;100161.50;5588936;31;33443;-68
2022/07/14 14:23:31;;;;;;;1.00;0.60;;;;;;;45.11;9.77;100152.78;5589622;31;34742;-67
2022/07/14 14:26:41;;;;;;;2.05;0.60;;;;;;;44.78;10.05;100145.69;5589585;31;34761;-68
2022/07/14 14:29:44;;;;;;;1.35;0.73;;;;;;;41.95;11.96;100150.22;5589487;31;34100;-69
2022/07/14 14:32:47;;;;;;;2.67;0.70;;;;;;;40.59;13.24;100146.91;5589710;31;34038;-67
2022/07/14 14:35:51;;;;;;;0.93;0.60;;;;;;;39.41;13.82;100139.69;5589189;31;32869;-68